sensor_id;sensor_type;location;lat;lon;timestamp;P1;durP1;ratioP1;P2;durP2;ratioP2
74102;SDS011;62853;46.166;3.640;2022-10-31T00:01:49;3.28;;;2.08;;
74102;SDS011;62853;46.166;3.640;2022-10-31T00:04:14;2.07;;;1.87;;
74102;SDS011;62853;46.166;3.640;2022-10-31T00:06:39;1.30;;;1.20;;
74102;SDS011;62853;46.166;3.640;2022-10-31T00:09:04;3.55;;;3.00;;
74102;SDS011;62853;46.166;3.640;2022-10-31T00:11:30;3.03;;;1.88;;
74102;SDS011;62853;46.166;3.640;2022-10-31T00:13:56;1.83;;;1.40;;
74102;SDS011;62853;46.166;3.640;2022-10-31T00:16:22;2.63;;;1.90;;
74102;SDS011;62853;46.166;3.640;2022-10-31T00:18:51;1.42;;;1.33;;
74102;SDS011;62853;46.166;3.640;2022-10-31T00:21:17;1.33;;;1.05;;
74102;SDS011;62853;46.166;3.640;2022-10-31T00:23:42;2.20;;;1.00;;
74102;SDS011;62853;46.166;3.640;2022-10-31T00:26:07;0.80;;;0.80;;
74102;SDS011;62853;46.166;3.640;2022-10-31T00:28:33;0.77;;;0.77;;
74102;SDS011;62853;46.166;3.640;2022-10-31T00:30:59;2.63;;;1.13;;
74102;SDS011;62853;46.166;3.640;2022-10-31T00:33:24;3.30;;;2.90;;
74102;SDS011;62853;46.166;3.640;2022-10-31T00:35:50;1.77;;;1.67;;
74102;SDS011;62853;46.166;3.640;2022-10-31T00:38:15;1.80;;;1.70;;
74102;SDS011;62853;46.166;3.640;2022-10-31T00:40:41;1.70;;;1.60;;
74102;SDS011;62853;46.166;3.640;2022-10-31T00:43:06;2.00;;;1.60;;
74102;SDS011;62853;46.166;3.640;2022-10-31T00:45:31;2.63;;;2.20;;
74102;SDS011;62853;46.166;3.640;2022-10-31T00:47:56;2.00;;;1.80;;
74102;SDS011;62853;46.166;3.640;2022-10-31T00:50:22;2.25;;;1.35;;
74102;SDS011;62853;46.166;3.640;2022-10-31T00:52:47;2.40;;;1.20;;
74102;SDS011;62853;46.166;3.640;2022-10-31T00:55:12;0.80;;;0.80;;
74102;SDS011;62853;46.166;3.640;2022-10-31T00:57:37;1.15;;;1.05;;
74102;SDS011;62853;46.166;3.640;2022-10-31T01:00:03;1.02;;;0.90;;
74102;SDS011;62853;46.166;3.640;2022-10-31T01:02:28;0.90;;;0.90;;
74102;SDS011;62853;46.166;3.640;2022-10-31T01:04:53;0.80;;;0.80;;
74102;SDS011;62853;46.166;3.640;2022-10-31T01:07:18;1.00;;;0.90;;
74102;SDS011;62853;46.166;3.640;2022-10-31T01:09:46;3.70;;;2.17;;
74102;SDS011;62853;46.166;3.640;2022-10-31T01:12:11;3.55;;;2.90;;
74102;SDS011;62853;46.166;3.640;2022-10-31T01:14:36;2.60;;;2.40;;
74102;SDS011;62853;46.166;3.640;2022-10-31T01:17:02;2.33;;;2.10;;
74102;SDS011;62853;46.166;3.640;2022-10-31T01:19:27;1.48;;;1.30;;
74102;SDS011;62853;46.166;3.640;2022-10-31T01:21:53;3.97;;;3.00;;
74102;SDS011;62853;46.166;3.640;2022-10-31T01:24:19;2.20;;;2.00;;
74102;SDS011;62853;46.166;3.640;2022-10-31T01:26:44;1.85;;;1.50;;
74102;SDS011;62853;46.166;3.640;2022-10-31T01:29:09;1.50;;;1.40;;
74102;SDS011;62853;46.166;3.640;2022-10-31T01:31:36;2.60;;;2.33;;
74102;SDS011;62853;46.166;3.640;2022-10-31T01:34:01;2.20;;;2.00;;
74102;SDS011;62853;46.166;3.640;2022-10-31T01:36:31;1.55;;;1.45;;
74102;SDS011;62853;46.166;3.640;2022-10-31T01:38:57;1.52;;;1.23;;
74102;SDS011;62853;46.166;3.640;2022-10-31T01:41:24;2.28;;;1.20;;
74102;SDS011;62853;46.166;3.640;2022-10-31T01:43:53;1.20;;;1.10;;
74102;SDS011;62853;46.166;3.640;2022-10-31T01:46:22;1.25;;;0.90;;
74102;SDS011;62853;46.166;3.640;2022-10-31T01:48:48;6.78;;;5.00;;
74102;SDS011;62853;46.166;3.640;2022-10-31T01:51:14;5.80;;;5.05;;
74102;SDS011;62853;46.166;3.640;2022-10-31T01:53:40;4.43;;;4.03;;
74102;SDS011;62853;46.166;3.640;2022-10-31T01:56:07;3.40;;;3.10;;
74102;SDS011;62853;46.166;3.640;2022-10-31T01:58:32;2.63;;;2.08;;
74102;SDS011;62853;46.166;3.640;2022-10-31T02:00:59;2.00;;;1.80;;
74102;SDS011;62853;46.166;3.640;2022-10-31T02:03:24;1.83;;;1.73;;
74102;SDS011;62853;46.166;3.640;2022-10-31T02:05:50;1.20;;;1.10;;
74102;SDS011;62853;46.166;3.640;2022-10-31T02:10:49;1.30;;;1.20;;
74102;SDS011;62853;46.166;3.640;2022-10-31T02:13:14;1.73;;;1.13;;
74102;SDS011;62853;46.166;3.640;2022-10-31T02:15:40;0.90;;;0.90;;
74102;SDS011;62853;46.166;3.640;2022-10-31T02:18:06;3.13;;;2.20;;
74102;SDS011;62853;46.166;3.640;2022-10-31T02:20:33;1.63;;;1.52;;
74102;SDS011;62853;46.166;3.640;2022-10-31T02:33:22;2.65;;;1.77;;
74102;SDS011;62853;46.166;3.640;2022-10-31T02:40:51;4.97;;;3.47;;
74102;SDS011;62853;46.166;3.640;2022-10-31T02:45:55;2.97;;;2.57;;
74102;SDS011;62853;46.166;3.640;2022-10-31T02:48:31;1.92;;;1.83;;
74102;SDS011;62853;46.166;3.640;2022-10-31T02:51:00;1.17;;;1.10;;
74102;SDS011;62853;46.166;3.640;2022-10-31T02:53:26;4.22;;;2.90;;
74102;SDS011;62853;46.166;3.640;2022-10-31T02:55:56;5.90;;;4.20;;
74102;SDS011;62853;46.166;3.640;2022-10-31T02:58:22;4.47;;;4.05;;
74102;SDS011;62853;46.166;3.640;2022-10-31T03:08:29;2.75;;;1.85;;
74102;SDS011;62853;46.166;3.640;2022-10-31T03:10:57;1.67;;;1.58;;
74102;SDS011;62853;46.166;3.640;2022-10-31T03:15:53;1.20;;;1.10;;
74102;SDS011;62853;46.166;3.640;2022-10-31T03:18:25;1.88;;;1.77;;
74102;SDS011;62853;46.166;3.640;2022-10-31T03:20:53;1.50;;;1.37;;
74102;SDS011;62853;46.166;3.640;2022-10-31T03:23:21;1.20;;;1.10;;
74102;SDS011;62853;46.166;3.640;2022-10-31T03:25:47;1.20;;;1.08;;
74102;SDS011;62853;46.166;3.640;2022-10-31T03:28:13;2.28;;;1.30;;
74102;SDS011;62853;46.166;3.640;2022-10-31T03:30:41;1.20;;;1.10;;
74102;SDS011;62853;46.166;3.640;2022-10-31T03:33:09;1.10;;;1.00;;
74102;SDS011;62853;46.166;3.640;2022-10-31T03:35:35;0.80;;;0.80;;
74102;SDS011;62853;46.166;3.640;2022-10-31T03:38:01;1.08;;;0.90;;
74102;SDS011;62853;46.166;3.640;2022-10-31T03:40:26;0.80;;;0.80;;
74102;SDS011;62853;46.166;3.640;2022-10-31T03:43:00;0.80;;;0.80;;
74102;SDS011;62853;46.166;3.640;2022-10-31T03:47:51;1.10;;;0.80;;
74102;SDS011;62853;46.166;3.640;2022-10-31T03:50:16;0.80;;;0.73;;
74102;SDS011;62853;46.166;3.640;2022-10-31T03:52:46;0.98;;;0.90;;
74102;SDS011;62853;46.166;3.640;2022-10-31T03:55:18;2.08;;;0.90;;
74102;SDS011;62853;46.166;3.640;2022-10-31T04:00:21;3.50;;;2.50;;
74102;SDS011;62853;46.166;3.640;2022-10-31T04:02:58;2.58;;;2.33;;
74102;SDS011;62853;46.166;3.640;2022-10-31T04:05:25;3.85;;;2.90;;
74102;SDS011;62853;46.166;3.640;2022-10-31T04:07:52;2.67;;;2.30;;
74102;SDS011;62853;46.166;3.640;2022-10-31T04:10:18;2.58;;;2.38;;
74102;SDS011;62853;46.166;3.640;2022-10-31T04:12:44;2.38;;;1.98;;
74102;SDS011;62853;46.166;3.640;2022-10-31T04:15:13;4.75;;;3.90;;
74102;SDS011;62853;46.166;3.640;2022-10-31T04:17:39;5.80;;;4.88;;
74102;SDS011;62853;46.166;3.640;2022-10-31T04:20:05;5.05;;;4.35;;
74102;SDS011;62853;46.166;3.640;2022-10-31T04:22:30;4.90;;;4.10;;
74102;SDS011;62853;46.166;3.640;2022-10-31T04:24:56;3.63;;;2.95;;
74102;SDS011;62853;46.166;3.640;2022-10-31T04:27:21;3.63;;;2.80;;
74102;SDS011;62853;46.166;3.640;2022-10-31T04:29:46;2.70;;;2.22;;
74102;SDS011;62853;46.166;3.640;2022-10-31T04:32:11;5.90;;;4.10;;
74102;SDS011;62853;46.166;3.640;2022-10-31T04:34:36;4.65;;;3.50;;
74102;SDS011;62853;46.166;3.640;2022-10-31T04:37:02;3.20;;;2.90;;
74102;SDS011;62853;46.166;3.640;2022-10-31T04:39:27;1.75;;;1.65;;
74102;SDS011;62853;46.166;3.640;2022-10-31T04:41:52;4.30;;;1.77;;
74102;SDS011;62853;46.166;3.640;2022-10-31T04:44:17;1.42;;;1.33;;
74102;SDS011;62853;46.166;3.640;2022-10-31T04:46:43;1.65;;;1.55;;
74102;SDS011;62853;46.166;3.640;2022-10-31T04:49:08;1.20;;;1.10;;
74102;SDS011;62853;46.166;3.640;2022-10-31T04:51:33;0.88;;;0.88;;
74102;SDS011;62853;46.166;3.640;2022-10-31T04:53:58;0.90;;;0.82;;
74102;SDS011;62853;46.166;3.640;2022-10-31T04:56:24;5.03;;;2.33;;
74102;SDS011;62853;46.166;3.640;2022-10-31T04:58:49;2.58;;;2.17;;
74102;SDS011;62853;46.166;3.640;2022-10-31T05:01:14;1.92;;;1.73;;
74102;SDS011;62853;46.166;3.640;2022-10-31T05:03:39;1.58;;;1.48;;
74102;SDS011;62853;46.166;3.640;2022-10-31T05:06:05;1.60;;;1.48;;
74102;SDS011;62853;46.166;3.640;2022-10-31T05:08:30;1.40;;;1.30;;
74102;SDS011;62853;46.166;3.640;2022-10-31T05:10:58;1.50;;;1.40;;
74102;SDS011;62853;46.166;3.640;2022-10-31T05:13:24;1.40;;;1.20;;
74102;SDS011;62853;46.166;3.640;2022-10-31T05:15:49;3.28;;;2.55;;
74102;SDS011;62853;46.166;3.640;2022-10-31T05:18:14;1.75;;;1.65;;
74102;SDS011;62853;46.166;3.640;2022-10-31T05:20:39;1.50;;;1.30;;
74102;SDS011;62853;46.166;3.640;2022-10-31T05:23:04;1.20;;;1.10;;
74102;SDS011;62853;46.166;3.640;2022-10-31T05:25:30;1.10;;;1.00;;
74102;SDS011;62853;46.166;3.640;2022-10-31T05:27:55;1.85;;;0.95;;
74102;SDS011;62853;46.166;3.640;2022-10-31T05:30:28;1.35;;;1.13;;
74102;SDS011;62853;46.166;3.640;2022-10-31T05:32:53;1.00;;;0.90;;
74102;SDS011;62853;46.166;3.640;2022-10-31T05:35:23;1.00;;;0.85;;
74102;SDS011;62853;46.166;3.640;2022-10-31T05:37:49;2.00;;;1.00;;
74102;SDS011;62853;46.166;3.640;2022-10-31T05:40:14;0.95;;;0.82;;
74102;SDS011;62853;46.166;3.640;2022-10-31T05:42:41;1.75;;;1.25;;
74102;SDS011;62853;46.166;3.640;2022-10-31T05:45:07;1.30;;;1.15;;
74102;SDS011;62853;46.166;3.640;2022-10-31T05:47:32;2.35;;;2.15;;
74102;SDS011;62853;46.166;3.640;2022-10-31T05:49:57;1.60;;;1.50;;
74102;SDS011;62853;46.166;3.640;2022-10-31T05:52:23;1.53;;;1.43;;
74102;SDS011;62853;46.166;3.640;2022-10-31T05:54:48;1.38;;;1.20;;
74102;SDS011;62853;46.166;3.640;2022-10-31T05:57:13;2.60;;;2.10;;
74102;SDS011;62853;46.166;3.640;2022-10-31T05:59:38;2.45;;;1.80;;
74102;SDS011;62853;46.166;3.640;2022-10-31T06:02:03;1.27;;;1.17;;
74102;SDS011;62853;46.166;3.640;2022-10-31T06:04:29;1.40;;;1.20;;
74102;SDS011;62853;46.166;3.640;2022-10-31T06:06:54;1.20;;;1.05;;
74102;SDS011;62853;46.166;3.640;2022-10-31T06:09:19;1.55;;;1.30;;
74102;SDS011;62853;46.166;3.640;2022-10-31T06:11:44;1.23;;;1.13;;
74102;SDS011;62853;46.166;3.640;2022-10-31T06:14:10;1.40;;;1.30;;
74102;SDS011;62853;46.166;3.640;2022-10-31T06:16:35;2.05;;;1.73;;
74102;SDS011;62853;46.166;3.640;2022-10-31T06:19:00;1.73;;;1.42;;
74102;SDS011;62853;46.166;3.640;2022-10-31T06:21:25;2.05;;;1.92;;
74102;SDS011;62853;46.166;3.640;2022-10-31T06:23:51;3.10;;;2.50;;
74102;SDS011;62853;46.166;3.640;2022-10-31T06:26:16;2.33;;;1.80;;
74102;SDS011;62853;46.166;3.640;2022-10-31T06:28:41;1.80;;;1.30;;
74102;SDS011;62853;46.166;3.640;2022-10-31T06:31:07;1.50;;;1.40;;
74102;SDS011;62853;46.166;3.640;2022-10-31T06:33:32;2.15;;;1.65;;
74102;SDS011;62853;46.166;3.640;2022-10-31T06:35:58;1.48;;;1.38;;
74102;SDS011;62853;46.166;3.640;2022-10-31T06:38:23;1.52;;;1.33;;
74102;SDS011;62853;46.166;3.640;2022-10-31T06:40:48;4.13;;;2.50;;
74102;SDS011;62853;46.166;3.640;2022-10-31T06:43:13;2.20;;;2.00;;
74102;SDS011;62853;46.166;3.640;2022-10-31T06:45:39;2.55;;;1.50;;
74102;SDS011;62853;46.166;3.640;2022-10-31T06:48:05;1.48;;;1.35;;
74102;SDS011;62853;46.166;3.640;2022-10-31T06:50:30;1.35;;;1.25;;
74102;SDS011;62853;46.166;3.640;2022-10-31T06:52:56;1.20;;;1.10;;
74102;SDS011;62853;46.166;3.640;2022-10-31T06:55:22;0.93;;;0.90;;
74102;SDS011;62853;46.166;3.640;2022-10-31T06:57:54;1.10;;;1.00;;
74102;SDS011;62853;46.166;3.640;2022-10-31T07:00:20;1.50;;;1.20;;
74102;SDS011;62853;46.166;3.640;2022-10-31T07:02:55;3.58;;;2.80;;
74102;SDS011;62853;46.166;3.640;2022-10-31T07:05:20;1.60;;;1.50;;
74102;SDS011;62853;46.166;3.640;2022-10-31T07:07:45;1.50;;;1.40;;
74102;SDS011;62853;46.166;3.640;2022-10-31T07:10:11;1.20;;;1.10;;
74102;SDS011;62853;46.166;3.640;2022-10-31T07:12:36;1.23;;;1.13;;
74102;SDS011;62853;46.166;3.640;2022-10-31T07:15:01;1.20;;;1.10;;
74102;SDS011;62853;46.166;3.640;2022-10-31T07:17:26;1.30;;;1.10;;
74102;SDS011;62853;46.166;3.640;2022-10-31T07:19:51;1.00;;;0.90;;
74102;SDS011;62853;46.166;3.640;2022-10-31T07:22:17;1.00;;;0.90;;
74102;SDS011;62853;46.166;3.640;2022-10-31T07:24:42;1.17;;;0.90;;
74102;SDS011;62853;46.166;3.640;2022-10-31T07:27:07;0.60;;;0.60;;
74102;SDS011;62853;46.166;3.640;2022-10-31T07:29:32;0.70;;;0.70;;
74102;SDS011;62853;46.166;3.640;2022-10-31T07:31:57;1.40;;;1.20;;
74102;SDS011;62853;46.166;3.640;2022-10-31T07:34:23;2.23;;;1.83;;
74102;SDS011;62853;46.166;3.640;2022-10-31T07:36:50;1.83;;;1.63;;
74102;SDS011;62853;46.166;3.640;2022-10-31T07:39:15;1.17;;;1.08;;
74102;SDS011;62853;46.166;3.640;2022-10-31T07:41:40;1.50;;;1.40;;
74102;SDS011;62853;46.166;3.640;2022-10-31T07:44:05;2.28;;;1.70;;
74102;SDS011;62853;46.166;3.640;2022-10-31T07:46:31;1.63;;;1.52;;
74102;SDS011;62853;46.166;3.640;2022-10-31T07:48:56;1.27;;;1.13;;
74102;SDS011;62853;46.166;3.640;2022-10-31T07:51:21;1.40;;;1.30;;
74102;SDS011;62853;46.166;3.640;2022-10-31T07:53:46;1.48;;;1.35;;
74102;SDS011;62853;46.166;3.640;2022-10-31T07:56:12;1.42;;;1.10;;
74102;SDS011;62853;46.166;3.640;2022-10-31T07:58:37;3.70;;;3.13;;
74102;SDS011;62853;46.166;3.640;2022-10-31T08:01:02;4.80;;;3.80;;
74102;SDS011;62853;46.166;3.640;2022-10-31T08:03:27;3.10;;;2.80;;
74102;SDS011;62853;46.166;3.640;2022-10-31T08:05:53;4.57;;;3.90;;
74102;SDS011;62853;46.166;3.640;2022-10-31T08:08:18;3.20;;;2.75;;
74102;SDS011;62853;46.166;3.640;2022-10-31T08:10:43;3.08;;;2.72;;
74102;SDS011;62853;46.166;3.640;2022-10-31T08:13:12;2.78;;;2.20;;
74102;SDS011;62853;46.166;3.640;2022-10-31T08:15:38;2.50;;;2.25;;
74102;SDS011;62853;46.166;3.640;2022-10-31T08:18:06;2.58;;;2.38;;
74102;SDS011;62853;46.166;3.640;2022-10-31T08:20:31;9.52;;;6.18;;
74102;SDS011;62853;46.166;3.640;2022-10-31T08:23:00;15.65;;;10.90;;
74102;SDS011;62853;46.166;3.640;2022-10-31T08:25:27;28.15;;;19.20;;
74102;SDS011;62853;46.166;3.640;2022-10-31T08:27:53;14.95;;;12.32;;
74102;SDS011;62853;46.166;3.640;2022-10-31T08:30:19;29.00;;;19.95;;
74102;SDS011;62853;46.166;3.640;2022-10-31T08:32:44;17.58;;;13.60;;
74102;SDS011;62853;46.166;3.640;2022-10-31T08:35:10;14.95;;;11.43;;
74102;SDS011;62853;46.166;3.640;2022-10-31T08:37:35;19.88;;;14.02;;
74102;SDS011;62853;46.166;3.640;2022-10-31T08:40:00;32.35;;;21.38;;
74102;SDS011;62853;46.166;3.640;2022-10-31T08:42:25;22.85;;;17.17;;
74102;SDS011;62853;46.166;3.640;2022-10-31T08:44:51;32.10;;;21.05;;
74102;SDS011;62853;46.166;3.640;2022-10-31T08:47:16;19.42;;;15.68;;
74102;SDS011;62853;46.166;3.640;2022-10-31T08:49:44;24.38;;;16.80;;
74102;SDS011;62853;46.166;3.640;2022-10-31T08:52:09;12.38;;;10.00;;
74102;SDS011;62853;46.166;3.640;2022-10-31T08:54:35;9.15;;;7.80;;
74102;SDS011;62853;46.166;3.640;2022-10-31T08:57:00;21.30;;;14.60;;
74102;SDS011;62853;46.166;3.640;2022-10-31T08:59:25;13.60;;;11.07;;
74102;SDS011;62853;46.166;3.640;2022-10-31T09:01:51;8.55;;;7.28;;
74102;SDS011;62853;46.166;3.640;2022-10-31T09:04:16;6.32;;;5.72;;
74102;SDS011;62853;46.166;3.640;2022-10-31T09:06:41;7.55;;;6.60;;
74102;SDS011;62853;46.166;3.640;2022-10-31T09:09:06;8.02;;;6.53;;
74102;SDS011;62853;46.166;3.640;2022-10-31T09:11:32;6.55;;;5.35;;
74102;SDS011;62853;46.166;3.640;2022-10-31T09:13:57;17.52;;;11.90;;
74102;SDS011;62853;46.166;3.640;2022-10-31T09:16:22;19.60;;;12.97;;
74102;SDS011;62853;46.166;3.640;2022-10-31T09:18:48;11.55;;;8.98;;
74102;SDS011;62853;46.166;3.640;2022-10-31T09:21:13;28.67;;;18.92;;
74102;SDS011;62853;46.166;3.640;2022-10-31T09:23:41;15.68;;;11.70;;
74102;SDS011;62853;46.166;3.640;2022-10-31T09:26:06;35.90;;;23.33;;
74102;SDS011;62853;46.166;3.640;2022-10-31T09:28:34;33.92;;;23.60;;
74102;SDS011;62853;46.166;3.640;2022-10-31T09:31:00;31.70;;;22.20;;
74102;SDS011;62853;46.166;3.640;2022-10-31T09:33:25;47.10;;;29.63;;
74102;SDS011;62853;46.166;3.640;2022-10-31T09:35:50;27.90;;;22.25;;
74102;SDS011;62853;46.166;3.640;2022-10-31T09:38:18;39.25;;;24.83;;
74102;SDS011;62853;46.166;3.640;2022-10-31T09:40:45;35.17;;;23.17;;
74102;SDS011;62853;46.166;3.640;2022-10-31T09:43:15;18.55;;;14.05;;
74102;SDS011;62853;46.166;3.640;2022-10-31T09:45:51;20.15;;;14.05;;
74102;SDS011;62853;46.166;3.640;2022-10-31T09:50:46;19.95;;;13.80;;
74102;SDS011;62853;46.166;3.640;2022-10-31T09:53:17;16.45;;;11.18;;
74102;SDS011;62853;46.166;3.640;2022-10-31T09:55:46;23.50;;;15.15;;
74102;SDS011;62853;46.166;3.640;2022-10-31T09:58:20;25.30;;;15.70;;
74102;SDS011;62853;46.166;3.640;2022-10-31T10:03:33;35.65;;;21.60;;
74102;SDS011;62853;46.166;3.640;2022-10-31T10:06:09;66.22;;;36.72;;
74102;SDS011;62853;46.166;3.640;2022-10-31T10:08:36;49.63;;;29.27;;
74102;SDS011;62853;46.166;3.640;2022-10-31T10:11:08;73.93;;;39.05;;
74102;SDS011;62853;46.166;3.640;2022-10-31T10:13:59;66.43;;;37.67;;
74102;SDS011;62853;46.166;3.640;2022-10-31T10:16:40;71.47;;;37.55;;
74102;SDS011;62853;46.166;3.640;2022-10-31T10:29:33;48.95;;;27.95;;
74102;SDS011;62853;46.166;3.640;2022-10-31T10:32:00;57.78;;;29.55;;
74102;SDS011;62853;46.166;3.640;2022-10-31T10:34:30;46.50;;;25.73;;
74102;SDS011;62853;46.166;3.640;2022-10-31T10:37:00;24.27;;;15.82;;
74102;SDS011;62853;46.166;3.640;2022-10-31T10:39:35;73.82;;;38.35;;
74102;SDS011;62853;46.166;3.640;2022-10-31T10:42:07;72.10;;;38.92;;
74102;SDS011;62853;46.166;3.640;2022-10-31T10:44:53;52.83;;;30.08;;
74102;SDS011;62853;46.166;3.640;2022-10-31T10:47:46;54.50;;;29.77;;
74102;SDS011;62853;46.166;3.640;2022-10-31T10:50:23;63.38;;;34.58;;
74102;SDS011;62853;46.166;3.640;2022-10-31T10:52:54;86.28;;;44.75;;
74102;SDS011;62853;46.166;3.640;2022-10-31T10:55:27;36.83;;;24.00;;
74102;SDS011;62853;46.166;3.640;2022-10-31T10:57:56;21.75;;;15.77;;
74102;SDS011;62853;46.166;3.640;2022-10-31T11:02:47;21.23;;;14.02;;
74102;SDS011;62853;46.166;3.640;2022-10-31T11:05:23;42.58;;;23.63;;
74102;SDS011;62853;46.166;3.640;2022-10-31T11:07:49;31.00;;;19.27;;
74102;SDS011;62853;46.166;3.640;2022-10-31T11:10:14;26.45;;;16.95;;
74102;SDS011;62853;46.166;3.640;2022-10-31T11:12:41;31.38;;;19.50;;
74102;SDS011;62853;46.166;3.640;2022-10-31T11:15:15;31.10;;;20.42;;
74102;SDS011;62853;46.166;3.640;2022-10-31T11:17:41;45.60;;;26.75;;
74102;SDS011;62853;46.166;3.640;2022-10-31T11:22:38;46.75;;;29.13;;
74102;SDS011;62853;46.166;3.640;2022-10-31T11:27:44;54.90;;;33.55;;
74102;SDS011;62853;46.166;3.640;2022-10-31T11:30:09;43.20;;;27.50;;
74102;SDS011;62853;46.166;3.640;2022-10-31T11:32:34;27.40;;;18.45;;
74102;SDS011;62853;46.166;3.640;2022-10-31T11:35:03;48.65;;;28.77;;
74102;SDS011;62853;46.166;3.640;2022-10-31T11:37:39;36.13;;;23.25;;
74102;SDS011;62853;46.166;3.640;2022-10-31T11:40:06;70.07;;;40.97;;
74102;SDS011;62853;46.166;3.640;2022-10-31T11:42:40;51.90;;;32.70;;
74102;SDS011;62853;46.166;3.640;2022-10-31T11:45:17;69.22;;;42.85;;
74102;SDS011;62853;46.166;3.640;2022-10-31T11:47:47;66.15;;;38.38;;
74102;SDS011;62853;46.166;3.640;2022-10-31T11:50:28;75.65;;;45.97;;
74102;SDS011;62853;46.166;3.640;2022-10-31T11:52:54;64.22;;;39.63;;
74102;SDS011;62853;46.166;3.640;2022-10-31T11:55:38;47.00;;;31.00;;
74102;SDS011;62853;46.166;3.640;2022-10-31T11:58:04;29.58;;;20.45;;
74102;SDS011;62853;46.166;3.640;2022-10-31T12:00:48;44.58;;;27.77;;
74102;SDS011;62853;46.166;3.640;2022-10-31T12:05:41;51.83;;;32.78;;
74102;SDS011;62853;46.166;3.640;2022-10-31T12:08:11;31.55;;;21.90;;
74102;SDS011;62853;46.166;3.640;2022-10-31T12:10:40;33.03;;;21.50;;
74102;SDS011;62853;46.166;3.640;2022-10-31T12:15:46;41.05;;;24.77;;
74102;SDS011;62853;46.166;3.640;2022-10-31T12:23:18;50.20;;;32.00;;
74102;SDS011;62853;46.166;3.640;2022-10-31T12:25:58;57.65;;;35.05;;
74102;SDS011;62853;46.166;3.640;2022-10-31T12:28:32;73.97;;;43.75;;
74102;SDS011;62853;46.166;3.640;2022-10-31T12:31:16;65.72;;;38.75;;
74102;SDS011;62853;46.166;3.640;2022-10-31T12:36:37;66.78;;;37.38;;
74102;SDS011;62853;46.166;3.640;2022-10-31T12:49:42;54.15;;;33.95;;
74102;SDS011;62853;46.166;3.640;2022-10-31T12:54:49;36.92;;;24.20;;
74102;SDS011;62853;46.166;3.640;2022-10-31T12:57:29;52.30;;;32.10;;
74102;SDS011;62853;46.166;3.640;2022-10-31T12:59:57;27.63;;;19.98;;
74102;SDS011;62853;46.166;3.640;2022-10-31T13:02:27;21.90;;;16.02;;
74102;SDS011;62853;46.166;3.640;2022-10-31T13:04:55;22.05;;;15.90;;
74102;SDS011;62853;46.166;3.640;2022-10-31T13:07:34;37.30;;;24.08;;
74102;SDS011;62853;46.166;3.640;2022-10-31T13:12:26;41.55;;;26.38;;
74102;SDS011;62853;46.166;3.640;2022-10-31T13:14:53;32.80;;;22.95;;
74102;SDS011;62853;46.166;3.640;2022-10-31T13:17:39;25.70;;;18.02;;
74102;SDS011;62853;46.166;3.640;2022-10-31T13:20:14;18.92;;;12.95;;
74102;SDS011;62853;46.166;3.640;2022-10-31T13:22:42;17.23;;;12.07;;
74102;SDS011;62853;46.166;3.640;2022-10-31T13:25:10;18.13;;;12.55;;
74102;SDS011;62853;46.166;3.640;2022-10-31T13:27:43;30.05;;;17.42;;
74102;SDS011;62853;46.166;3.640;2022-10-31T13:30:13;39.10;;;23.57;;
74102;SDS011;62853;46.166;3.640;2022-10-31T13:32:49;32.75;;;22.20;;
74102;SDS011;62853;46.166;3.640;2022-10-31T13:35:18;31.45;;;21.63;;
74102;SDS011;62853;46.166;3.640;2022-10-31T13:37:46;27.15;;;18.13;;
74102;SDS011;62853;46.166;3.640;2022-10-31T13:40:30;27.20;;;18.08;;
74102;SDS011;62853;46.166;3.640;2022-10-31T13:45:23;43.88;;;26.40;;
74102;SDS011;62853;46.166;3.640;2022-10-31T13:47:59;40.63;;;25.02;;
74102;SDS011;62853;46.166;3.640;2022-10-31T13:50:26;34.05;;;22.52;;
74102;SDS011;62853;46.166;3.640;2022-10-31T13:53:03;29.67;;;20.33;;
74102;SDS011;62853;46.166;3.640;2022-10-31T13:55:35;22.50;;;16.40;;
74102;SDS011;62853;46.166;3.640;2022-10-31T13:58:03;19.67;;;14.45;;
74102;SDS011;62853;46.166;3.640;2022-10-31T14:00:28;15.60;;;12.20;;
74102;SDS011;62853;46.166;3.640;2022-10-31T14:02:59;20.88;;;15.35;;
74102;SDS011;62853;46.166;3.640;2022-10-31T14:05:32;25.87;;;17.70;;
74102;SDS011;62853;46.166;3.640;2022-10-31T14:07:59;28.20;;;19.60;;
74102;SDS011;62853;46.166;3.640;2022-10-31T14:10:25;27.23;;;18.67;;
74102;SDS011;62853;46.166;3.640;2022-10-31T14:12:51;19.05;;;13.48;;
74102;SDS011;62853;46.166;3.640;2022-10-31T14:22:36;20.07;;;13.60;;
74102;SDS011;62853;46.166;3.640;2022-10-31T14:25:02;17.35;;;12.57;;
74102;SDS011;62853;46.166;3.640;2022-10-31T14:29:53;27.95;;;19.60;;
74102;SDS011;62853;46.166;3.640;2022-10-31T14:32:22;23.58;;;17.30;;
74102;SDS011;62853;46.166;3.640;2022-10-31T14:45:22;19.08;;;15.52;;
74102;SDS011;62853;46.166;3.640;2022-10-31T14:50:23;29.30;;;20.10;;
74102;SDS011;62853;46.166;3.640;2022-10-31T14:52:51;23.58;;;16.38;;
74102;SDS011;62853;46.166;3.640;2022-10-31T14:55:17;30.88;;;21.33;;
74102;SDS011;62853;46.166;3.640;2022-10-31T14:58:04;28.35;;;20.13;;
74102;SDS011;62853;46.166;3.640;2022-10-31T15:00:28;32.05;;;19.73;;
74102;SDS011;62853;46.166;3.640;2022-10-31T15:05:22;29.67;;;20.30;;
74102;SDS011;62853;46.166;3.640;2022-10-31T15:07:49;26.25;;;18.55;;
74102;SDS011;62853;46.166;3.640;2022-10-31T15:10:20;14.73;;;12.45;;
74102;SDS011;62853;46.166;3.640;2022-10-31T15:12:46;12.05;;;9.82;;
74102;SDS011;62853;46.166;3.640;2022-10-31T15:15:12;19.42;;;14.10;;
74102;SDS011;62853;46.166;3.640;2022-10-31T15:17:41;16.35;;;12.25;;
74102;SDS011;62853;46.166;3.640;2022-10-31T15:20:06;22.10;;;15.45;;
74102;SDS011;62853;46.166;3.640;2022-10-31T15:22:32;21.85;;;16.08;;
74102;SDS011;62853;46.166;3.640;2022-10-31T15:24:58;14.85;;;11.88;;
74102;SDS011;62853;46.166;3.640;2022-10-31T15:27:23;9.30;;;8.30;;
74102;SDS011;62853;46.166;3.640;2022-10-31T15:32:25;6.43;;;5.80;;
74102;SDS011;62853;46.166;3.640;2022-10-31T15:34:51;11.98;;;8.43;;
74102;SDS011;62853;46.166;3.640;2022-10-31T15:37:18;14.52;;;11.45;;
74102;SDS011;62853;46.166;3.640;2022-10-31T15:39:44;13.85;;;11.90;;
74102;SDS011;62853;46.166;3.640;2022-10-31T15:42:26;12.90;;;9.80;;
74102;SDS011;62853;46.166;3.640;2022-10-31T15:44:55;9.30;;;7.78;;
74102;SDS011;62853;46.166;3.640;2022-10-31T15:47:23;13.57;;;9.80;;
74102;SDS011;62853;46.166;3.640;2022-10-31T15:49:53;10.45;;;8.40;;
74102;SDS011;62853;46.166;3.640;2022-10-31T15:54:56;5.70;;;4.68;;
74102;SDS011;62853;46.166;3.640;2022-10-31T15:57:23;4.10;;;3.70;;
74102;SDS011;62853;46.166;3.640;2022-10-31T15:59:48;3.58;;;3.28;;
74102;SDS011;62853;46.166;3.640;2022-10-31T16:02:17;4.38;;;3.40;;
74102;SDS011;62853;46.166;3.640;2022-10-31T16:04:49;5.65;;;5.03;;
74102;SDS011;62853;46.166;3.640;2022-10-31T16:07:16;8.82;;;7.13;;
74102;SDS011;62853;46.166;3.640;2022-10-31T16:09:52;6.03;;;5.30;;
74102;SDS011;62853;46.166;3.640;2022-10-31T16:12:17;4.20;;;3.80;;
74102;SDS011;62853;46.166;3.640;2022-10-31T16:14:43;3.20;;;2.90;;
74102;SDS011;62853;46.166;3.640;2022-10-31T16:17:15;4.80;;;3.65;;
74102;SDS011;62853;46.166;3.640;2022-10-31T16:19:49;3.70;;;3.08;;
74102;SDS011;62853;46.166;3.640;2022-10-31T16:22:19;2.40;;;2.20;;
74102;SDS011;62853;46.166;3.640;2022-10-31T16:24:46;4.40;;;3.15;;
74102;SDS011;62853;46.166;3.640;2022-10-31T16:27:22;3.80;;;2.63;;
74102;SDS011;62853;46.166;3.640;2022-10-31T16:29:50;3.60;;;2.70;;
74102;SDS011;62853;46.166;3.640;2022-10-31T16:32:29;2.63;;;2.40;;
74102;SDS011;62853;46.166;3.640;2022-10-31T16:35:16;3.83;;;3.00;;
74102;SDS011;62853;46.166;3.640;2022-10-31T16:37:42;2.55;;;2.35;;
74102;SDS011;62853;46.166;3.640;2022-10-31T16:40:09;3.50;;;3.05;;
74102;SDS011;62853;46.166;3.640;2022-10-31T16:42:35;4.53;;;3.50;;